createdAt,value
2023-05-20T00:01:40.588Z,15.67
2023-05-20T00:06:42.495Z,15.70
2023-05-20T00:11:45.078Z,15.77
2023-05-20T00:16:46.673Z,15.58
2023-05-20T00:21:48.145Z,15.73
2023-05-20T00:26:49.595Z,15.80
2023-05-20T00:31:51.363Z,15.83
2023-05-20T00:36:53.376Z,15.57
2023-05-20T00:41:55.109Z,15.79
2023-05-20T00:46:56.839Z,15.51
2023-05-20T00:51:58.860Z,15.35
2023-05-20T00:57:03.002Z,15.47
2023-05-20T01:02:04.954Z,15.46
2023-05-20T01:07:07.484Z,15.30
2023-05-20T01:12:20.806Z,15.42
2023-05-20T01:17:27.865Z,15.20
2023-05-20T01:22:29.932Z,15.32
2023-05-20T01:27:31.567Z,15.23
2023-05-20T01:32:37.349Z,15.30
2023-05-20T01:37:41.334Z,15.19
2023-05-20T01:42:44.820Z,15.31
2023-05-20T01:47:46.772Z,15.10
2023-05-20T01:52:48.455Z,15.25
2023-05-20T01:57:50.293Z,15.19
2023-05-20T02:02:51.963Z,15.10
2023-05-20T02:07:53.594Z,14.98
2023-05-20T02:12:55.244Z,15.09
2023-05-20T02:17:58.032Z,15.04
2023-05-20T02:22:59.904Z,15.11
2023-05-20T02:28:01.718Z,15.08
2023-05-20T02:33:03.463Z,14.90
2023-05-20T02:38:04.896Z,14.92
2023-05-20T02:43:06.366Z,14.84
2023-05-20T02:48:07.874Z,14.97
2023-05-20T02:53:09.613Z,14.94
2023-05-20T02:58:13.385Z,15.01
2023-05-20T03:03:14.889Z,15.08
2023-05-20T03:08:16.261Z,15.08
2023-05-20T03:13:17.775Z,15.09
2023-05-20T03:18:19.250Z,15.11
2023-05-20T03:23:21.294Z,15.02
2023-05-20T03:28:22.733Z,15.01
2023-05-20T03:33:26.426Z,14.88
2023-05-20T03:38:27.992Z,14.77
2023-05-20T03:43:30.388Z,14.71
2023-05-20T03:48:32.063Z,14.93
2023-05-20T03:53:33.859Z,14.84
2023-05-20T03:58:35.347Z,14.97
2023-05-20T04:03:36.897Z,15.07
2023-05-20T04:08:38.545Z,15.01
2023-05-20T04:13:39.952Z,14.96
2023-05-20T04:18:41.949Z,14.98
2023-05-20T04:23:43.396Z,14.92
2023-05-20T04:28:45.084Z,14.98
2023-05-20T04:33:46.905Z,15.02
2023-05-20T04:38:49.602Z,15.02
2023-05-20T04:43:51.089Z,14.95
2023-05-20T04:48:53.848Z,15.11
2023-05-20T04:53:55.322Z,15.06
2023-05-20T04:58:56.779Z,15.12
2023-05-20T05:03:58.467Z,15.20
2023-05-20T05:09:00.052Z,15.33
2023-05-20T05:14:01.726Z,15.38
2023-05-20T05:19:03.124Z,15.43
2023-05-20T05:24:04.764Z,15.43
2023-05-20T05:29:06.380Z,15.53
2023-05-20T05:34:07.984Z,15.54
2023-05-20T05:39:09.563Z,15.71
2023-05-20T05:44:10.951Z,15.78
2023-05-20T05:49:12.593Z,15.53
2023-05-20T05:54:13.990Z,15.66
2023-05-20T05:59:16.272Z,15.73
2023-05-20T06:04:18.181Z,15.69
2023-05-20T06:09:19.587Z,15.93
2023-05-20T06:14:21.405Z,16.03
2023-05-20T06:19:22.910Z,16.05
2023-05-20T06:24:24.815Z,16.08
2023-05-20T06:29:26.548Z,16.05
2023-05-20T06:34:28.104Z,16.07
2023-05-20T06:39:29.705Z,16.19
2023-05-20T06:44:31.594Z,16.22
2023-05-20T06:49:33.168Z,16.29
2023-05-20T06:54:39.864Z,16.22
2023-05-20T06:59:42.077Z,16.29
2023-05-20T07:04:43.593Z,16.34
2023-05-20T07:09:45.265Z,16.29
2023-05-20T07:14:47.805Z,16.46
2023-05-20T07:19:49.486Z,16.58
2023-05-20T07:24:50.952Z,16.40
2023-05-20T07:29:52.458Z,16.75
2023-05-20T07:34:53.843Z,16.83
2023-05-20T07:39:55.462Z,16.93
2023-05-20T07:44:57.007Z,17.17
2023-05-20T07:49:58.726Z,17.39
2023-05-20T07:55:00.183Z,17.51
2023-05-20T08:00:01.666Z,17.63
2023-05-20T08:05:03.274Z,17.88
2023-05-20T08:10:05.735Z,18.07
2023-05-20T08:15:08.150Z,18.19
2023-05-20T08:20:10.835Z,18.35
2023-05-20T08:25:12.291Z,18.42
2023-05-20T08:30:13.829Z,18.54
2023-05-20T08:35:15.464Z,18.89
2023-05-20T08:40:17.001Z,19.32
2023-05-20T08:45:21.115Z,19.49
2023-05-20T08:50:22.740Z,19.45
2023-05-20T08:55:37.674Z,19.39
2023-05-20T09:00:39.431Z,19.34
2023-05-20T09:05:43.377Z,19.40
2023-05-20T09:10:44.902Z,19.35
2023-05-20T09:15:46.290Z,19.47
2023-05-20T09:20:50.896Z,19.48
2023-05-20T09:25:53.236Z,19.49
2023-05-20T09:30:59.068Z,19.70
2023-05-20T09:36:07.411Z,20.21
2023-05-20T09:41:13.688Z,20.54
2023-05-20T09:46:16.785Z,20.75
2023-05-20T09:51:19.102Z,21.23
2023-05-20T09:56:22.049Z,21.46
2023-05-20T10:01:23.834Z,21.48
2023-05-20T10:06:59.838Z,21.34
2023-05-20T10:12:39.361Z,21.25
2023-05-20T10:17:46.869Z,21.09
2023-05-20T10:22:58.136Z,21.22
2023-05-20T10:28:08.738Z,21.35
2023-05-20T10:33:18.227Z,21.68
2023-05-20T10:38:21.547Z,21.91
2023-05-20T10:43:28.476Z,22.38
2023-05-20T10:48:34.196Z,22.62
2023-05-20T10:53:42.887Z,22.72
2023-05-20T10:58:44.716Z,22.90
2023-05-20T11:03:49.488Z,22.92
2023-05-20T11:08:51.329Z,23.09
2023-05-20T11:13:53.201Z,22.93
2023-05-20T11:18:54.761Z,23.20
2023-05-20T11:23:56.784Z,23.00
2023-05-20T11:28:59.395Z,23.33
2023-05-20T11:34:02.498Z,23.57
2023-05-20T11:39:05.526Z,23.54
2023-05-20T11:44:11.874Z,23.83
2023-05-20T11:49:14.084Z,24.00
2023-05-20T11:54:15.516Z,23.83
2023-05-20T11:59:16.981Z,23.91
2023-05-20T12:04:18.903Z,24.03
2023-05-20T12:09:20.616Z,23.80
2023-05-20T12:14:22.186Z,23.97
2023-05-20T12:19:23.721Z,24.03
2023-05-20T12:24:25.332Z,23.98
2023-05-20T12:29:27.028Z,23.99
2023-05-20T12:34:28.580Z,23.84
2023-05-20T12:39:29.920Z,23.83
2023-05-20T12:44:31.452Z,23.93
2023-05-20T12:49:32.899Z,23.81
2023-05-20T12:54:34.738Z,23.73
2023-05-20T12:59:36.265Z,23.57
2023-05-20T13:04:38.011Z,23.45
2023-05-20T13:09:39.497Z,23.53
2023-05-20T13:14:41.630Z,23.63
2023-05-20T13:19:44.331Z,23.67
2023-05-20T13:24:45.748Z,23.70
2023-05-20T13:29:47.503Z,23.83
2023-05-20T13:34:49.110Z,23.78
2023-05-20T13:39:51.490Z,23.75
2023-05-20T13:44:52.980Z,23.78
2023-05-20T13:49:54.359Z,23.51
2023-05-20T13:54:56.096Z,23.45
2023-05-20T13:59:57.465Z,23.42
2023-05-20T14:04:58.887Z,23.34
2023-05-20T14:10:00.423Z,23.23
2023-05-20T14:15:01.826Z,23.03
2023-05-20T14:20:03.794Z,23.01
2023-05-20T14:25:06.232Z,23.08
2023-05-20T14:30:08.531Z,22.96
2023-05-20T14:35:10.499Z,23.07
2023-05-20T14:40:12.320Z,23.14
2023-05-20T14:45:13.730Z,23.20
2023-05-20T14:50:15.642Z,23.28
2023-05-20T14:55:17.358Z,22.92
2023-05-20T15:00:19.042Z,23.04
2023-05-20T15:05:20.786Z,22.88
2023-05-20T15:10:22.279Z,22.76
2023-05-20T15:15:23.966Z,22.95
2023-05-20T15:20:25.650Z,23.00
2023-05-20T15:25:27.172Z,22.95
2023-05-20T15:30:28.608Z,22.87
2023-05-20T15:35:30.279Z,22.70
2023-05-20T15:40:32.183Z,22.67
2023-05-20T15:45:33.985Z,22.60
2023-05-20T15:50:37.137Z,22.37
2023-05-20T15:55:38.683Z,22.52
2023-05-20T16:00:40.463Z,22.48
2023-05-20T16:05:42.489Z,22.58
2023-05-20T16:10:43.935Z,22.23
2023-05-20T16:15:45.785Z,22.21
2023-05-20T16:20:47.458Z,22.12
2023-05-20T16:25:48.922Z,22.07
2023-05-20T16:30:50.418Z,21.98
2023-05-20T16:35:52.556Z,21.95
2023-05-20T16:40:54.298Z,21.80
2023-05-20T16:45:56.315Z,21.67
2023-05-20T16:50:57.992Z,21.58
2023-05-20T16:55:59.424Z,21.57
2023-05-20T17:01:01.925Z,21.52
2023-05-20T17:06:03.708Z,21.51
2023-05-20T17:11:05.503Z,21.39
2023-05-20T17:16:09.735Z,21.33
2023-05-20T17:21:13.163Z,21.02
2023-05-20T17:26:16.859Z,21.00
2023-05-20T17:31:18.378Z,20.92
2023-05-20T17:36:22.683Z,20.87
2023-05-20T17:41:24.161Z,20.68
2023-05-20T17:46:25.676Z,20.58
2023-05-20T17:51:27.507Z,20.69
2023-05-20T17:56:29.033Z,20.68
2023-05-20T18:01:31.033Z,20.69
2023-05-20T18:06:34.785Z,20.43
2023-05-20T18:11:36.536Z,20.43
2023-05-20T18:16:38.430Z,20.38
2023-05-20T18:21:40.176Z,20.34
2023-05-20T18:26:42.035Z,20.23
2023-05-20T18:31:43.850Z,20.07
2023-05-20T18:36:45.395Z,20.18
2023-05-20T18:41:47.743Z,19.96
2023-05-20T18:46:49.264Z,19.92
2023-05-20T18:51:51.022Z,19.85
2023-05-20T18:56:52.620Z,19.80
2023-05-20T19:01:54.109Z,19.75
2023-05-20T19:06:55.810Z,19.78
2023-05-20T19:11:59.320Z,19.65
2023-05-20T19:17:01.167Z,19.59
2023-05-20T19:22:02.972Z,19.58
2023-05-20T19:27:05.116Z,19.53
2023-05-20T19:32:06.834Z,19.29
2023-05-20T19:37:08.255Z,19.29
2023-05-20T19:42:09.658Z,19.24
2023-05-20T19:47:11.175Z,19.20
2023-05-20T19:52:12.939Z,19.08
2023-05-20T19:57:14.946Z,18.99
2023-05-20T20:02:16.640Z,18.96
2023-05-20T20:07:18.194Z,18.89
2023-05-20T20:12:19.674Z,18.94
2023-05-20T20:17:23.262Z,18.98
2023-05-20T20:22:24.998Z,19.02
2023-05-20T20:27:26.427Z,18.92
2023-05-20T20:32:28.380Z,18.98
2023-05-20T20:37:30.136Z,18.79
2023-05-20T20:42:32.408Z,18.78
2023-05-20T20:47:34.268Z,18.48
2023-05-20T20:52:36.366Z,18.42
2023-05-20T20:57:38.065Z,18.41
2023-05-20T21:02:39.486Z,18.28
2023-05-20T21:07:44.714Z,18.14
2023-05-20T21:12:46.402Z,18.21
2023-05-20T21:17:47.877Z,18.12
2023-05-20T21:22:49.408Z,18.17
2023-05-20T21:27:51.090Z,18.01
2023-05-20T21:32:52.786Z,17.83
2023-05-20T21:37:54.319Z,17.98
2023-05-20T21:42:55.874Z,17.82
2023-05-20T21:47:57.336Z,17.95
2023-05-20T21:52:58.882Z,17.65
2023-05-20T21:58:00.340Z,17.69
2023-05-20T22:03:01.908Z,17.81
2023-05-20T22:08:03.706Z,17.72
2023-05-20T22:13:05.515Z,17.56
2023-05-20T22:18:07.908Z,17.65
2023-05-20T22:23:09.429Z,17.57
2023-05-20T22:28:11.074Z,17.51
2023-05-20T22:33:13.230Z,17.48
2023-05-20T22:38:14.735Z,17.59
2023-05-20T22:43:16.545Z,17.61
2023-05-20T22:48:19.284Z,17.55
2023-05-20T22:53:20.739Z,17.48
2023-05-20T22:58:22.514Z,17.46
2023-05-20T23:03:24.075Z,17.28
2023-05-20T23:08:26.083Z,17.26
2023-05-20T23:13:28.119Z,17.34
2023-05-20T23:18:29.660Z,17.38
2023-05-20T23:23:32.394Z,17.35
2023-05-20T23:28:34.920Z,17.28
2023-05-20T23:33:36.772Z,17.16
2023-05-20T23:38:40.634Z,17.06
2023-05-20T23:43:42.784Z,17.17
2023-05-20T23:48:45.206Z,17.24
2023-05-20T23:53:46.947Z,17.16
2023-05-20T23:58:48.296Z,17.16
